Time;durP1;ratioP1;P1;durP2;ratioP2;P2;SDS_P1;SDS_P2;PMS_P1;PMS_P2;Temp;Humidity;BMP_temperature;BMP_pressure;BME280_temperature;BME280_humidity;BME280_pressure;Samples;Min_cycle;Max_cycle;Signal;HPM_P1;HPM_P2
2022/09/17 00:01:27;;;;;;;1.73;0.70;;;;;;;10.56;90.45;98453.28;4936864;28;20255;-53
2022/09/17 00:03:56;;;;;;;1.40;0.60;;;;;;;10.60;91.82;98458.03;4931810;28;20783;-53
2022/09/17 00:06:24;;;;;;;3.43;0.60;;;;;;;10.57;90.91;98460.16;4934731;28;20606;-51
2022/09/17 00:08:53;;;;;;;1.70;0.60;;;;;;;10.53;91.94;98457.00;4935337;28;20240;-53
2022/09/17 00:11:43;;;;;;;3.27;0.90;;;;;;;10.56;91.91;98458.50;4936891;28;20277;-51
2022/09/17 00:14:14;;;;;;;2.80;0.70;;;;;;;10.56;92.39;98461.94;4937923;28;20268;-51
2022/09/17 00:16:43;;;;;;;3.07;0.97;;;;;;;10.50;92.22;98466.97;4935719;28;20608;-50
2022/09/17 00:19:13;;;;;;;3.37;0.70;;;;;;;10.46;92.13;98467.25;4938778;28;20238;-50
2022/09/17 00:21:40;;;;;;;5.97;0.90;;;;;;;10.43;93.03;98459.75;4932125;28;20233;-51
2022/09/17 00:24:07;;;;;;;3.70;0.67;;;;;;;10.45;93.22;98456.97;4935175;28;20255;-50
2022/09/17 00:26:35;;;;;;;2.97;0.90;;;;;;;10.38;91.61;98458.53;4933710;28;20720;-52
2022/09/17 00:29:04;;;;;;;2.13;0.70;;;;;;;10.31;91.82;98456.53;4935566;28;20701;-53
2022/09/17 00:31:32;;;;;;;4.07;0.93;;;;;;;10.28;91.94;98458.63;4933658;28;20246;-50
2022/09/17 00:33:59;;;;;;;5.80;0.70;;;;;;;10.24;91.99;98455.50;4935666;28;20327;-50
2022/09/17 00:36:26;;;;;;;4.80;0.90;;;;;;;10.22;92.13;98461.84;4935155;28;20323;-53
2022/09/17 00:38:54;;;;;;;2.30;0.70;;;;;;;10.19;93.35;98461.19;4932356;28;20605;-51
2022/09/17 00:41:23;;;;;;;1.13;0.57;;;;;;;10.19;94.73;98457.75;4931533;29;20932;-52
2022/09/17 00:43:55;;;;;;;2.60;0.90;;;;;;;10.16;92.13;98460.66;4931013;28;20689;-53
2022/09/17 00:46:31;;;;;;;1.48;0.70;;;;;;;10.13;90.49;98450.53;4935302;28;20103;-50
2022/09/17 00:49:01;;;;;;;3.17;0.63;;;;;;;10.11;91.83;98453.28;4933908;28;20325;-50
2022/09/17 00:51:33;;;;;;;5.77;0.87;;;;;;;10.10;91.68;98454.28;4936291;28;20238;-51
2022/09/17 00:54:02;;;;;;;3.20;0.70;;;;;;;10.13;91.84;98450.53;4934175;28;20237;-52
2022/09/17 00:56:33;;;;;;;6.03;0.63;;;;;;;10.14;92.58;98449.56;4932601;28;20288;-51
2022/09/17 00:59:01;;;;;;;2.20;0.90;;;;;;;10.06;91.26;98454.72;4937433;28;20323;-51
2022/09/17 01:01:29;;;;;;;3.60;0.60;;;;;;;10.11;92.67;98458.50;4933694;29;20240;-54
2022/09/17 01:03:56;;;;;;;2.50;0.50;;;;;;;10.12;91.67;98461.94;4934842;28;20254;-51
2022/09/17 01:06:31;;;;;;;4.53;0.90;;;;;;;10.14;93.32;98465.19;4933757;28;20228;-51
2022/09/17 01:09:18;;;;;;;2.63;0.50;;;;;;;10.10;90.84;98469.91;4935773;28;20288;-51
2022/09/17 01:11:59;;;;;;;1.77;0.73;;;;;;;10.10;92.78;98464.69;4932717;28;20596;-53
2022/09/17 01:14:44;;;;;;;1.30;0.60;;;;;;;10.13;92.77;98467.00;4936163;28;20268;-50
2022/09/17 01:17:20;;;;;;;3.00;0.90;;;;;;;10.10;94.22;98469.09;4934886;28;20228;-52
2022/09/17 01:20:13;;;;;;;2.53;0.67;;;;;;;10.14;93.87;98470.41;4933581;28;20280;-51
2022/09/17 01:22:54;;;;;;;4.70;1.30;;;;;;;10.09;93.18;98480.47;4933203;28;20232;-52
2022/09/17 01:25:23;;;;;;;3.30;0.70;;;;;;;10.09;92.50;98478.72;4933250;28;20228;-50
2022/09/17 01:28:26;;;;;;;1.50;0.60;;;;;;;10.10;92.88;98476.91;4932689;28;20907;-52
2022/09/17 01:31:13;;;;;;;1.57;0.73;;;;;;;10.12;93.68;98483.63;4919286;28;20316;-51
2022/09/17 01:33:48;;;;;;;4.43;0.83;;;;;;;10.07;91.88;98482.44;4933973;28;20241;-51
2022/09/17 01:36:27;;;;;;;5.63;0.63;;;;;;;10.08;91.86;98486.66;4936052;28;20220;-51
2022/09/17 01:39:02;;;;;;;2.27;1.40;;;;;;;9.97;91.12;98483.34;4933188;28;20245;-51
2022/09/17 01:41:39;;;;;;;7.63;1.47;;;;;;;9.93;91.89;98483.78;4931661;28;20308;-51
2022/09/17 01:44:13;;;;;;;1.83;0.80;;;;;;;9.93;91.45;98484.63;4933193;28;20244;-51
2022/09/17 01:46:47;;;;;;;4.70;1.10;;;;;;;9.81;91.32;98483.22;4932906;28;20236;-51
2022/09/17 01:49:16;;;;;;;3.47;1.10;;;;;;;9.84;90.37;98478.50;4934855;29;20236;-50
2022/09/17 01:51:47;;;;;;;4.97;0.90;;;;;;;9.86;92.14;98479.16;4932693;28;20269;-51
2022/09/17 01:54:19;;;;;;;5.07;1.00;;;;;;;9.88;92.60;98482.44;4935796;28;20238;-50
2022/09/17 01:56:52;;;;;;;1.57;0.80;;;;;;;9.89;91.60;98488.50;4932442;28;20277;-52
2022/09/17 01:59:22;;;;;;;3.87;1.00;;;;;;;9.87;93.07;98488.63;4937194;28;20229;-52
2022/09/17 02:01:55;;;;;;;1.43;1.27;;;;;;;9.87;92.64;98482.63;4934733;28;20252;-52
2022/09/17 02:04:26;;;;;;;4.30;1.13;;;;;;;9.90;93.83;98496.16;4937406;28;20232;-49
2022/09/17 02:06:58;;;;;;;3.47;1.30;;;;;;;9.87;91.97;98493.84;4933115;28;20239;-53
2022/09/17 02:09:31;;;;;;;2.73;1.20;;;;;;;9.88;92.70;98492.06;4922432;29;20229;-50
2022/09/17 02:12:03;;;;;;;3.53;1.20;;;;;;;9.85;93.17;98492.38;4936784;28;20249;-50
2022/09/17 02:14:36;;;;;;;4.70;1.23;;;;;;;9.83;92.41;98494.31;4933992;28;20669;-51
2022/09/17 02:17:10;;;;;;;3.43;1.13;;;;;;;9.79;91.61;98492.97;4937894;28;20291;-50
2022/09/17 02:19:39;;;;;;;5.40;1.10;;;;;;;9.77;93.77;98497.50;4936006;28;20231;-51
2022/09/17 02:22:16;;;;;;;3.73;1.10;;;;;;;9.75;92.42;98497.66;4938536;28;20781;-52
2022/09/17 02:24:45;;;;;;;7.03;1.23;;;;;;;9.71;93.24;98497.13;4935586;28;20589;-51
2022/09/17 02:27:20;;;;;;;3.70;1.10;;;;;;;9.72;94.66;98492.72;4937800;28;21113;-50
2022/09/17 02:29:47;;;;;;;4.90;1.10;;;;;;;9.73;94.62;98486.53;4933804;28;20243;-51
2022/09/17 02:32:15;;;;;;;4.20;1.10;;;;;;;9.75;96.80;98474.19;4938808;28;20231;-51
2022/09/17 02:34:42;;;;;;;6.20;1.40;;;;;;;9.77;97.63;98492.28;4935036;28;20739;-51
2022/09/17 02:37:08;;;;;;;4.13;1.63;;;;;;;9.76;96.27;98494.06;4938104;28;20259;-52
2022/09/17 02:39:35;;;;;;;9.23;1.57;;;;;;;9.80;91.32;98494.59;4936325;28;20238;-50
2022/09/17 02:42:11;;;;;;;5.27;1.50;;;;;;;9.73;94.43;98478.72;4924430;28;20223;-52
2022/09/17 02:44:46;;;;;;;4.93;2.10;;;;;;;9.72;93.42;98492.72;4936991;28;20242;-51
2022/09/17 02:47:33;;;;;;;5.90;2.00;;;;;;;9.71;95.91;98488.47;4940726;28;20242;-53
2022/09/17 02:50:17;;;;;;;2.83;1.30;;;;;;;9.66;94.11;98491.53;4937158;28;20230;-51
2022/09/17 02:52:57;;;;;;;4.30;1.90;;;;;;;9.70;93.89;98490.28;4937403;28;20773;-51
2022/09/17 02:55:34;;;;;;;3.03;1.53;;;;;;;9.64;94.14;98477.00;4922988;29;20235;-52
2022/09/17 02:58:11;;;;;;;4.87;2.00;;;;;;;9.67;96.47;98482.75;4918993;29;20238;-50
2022/09/17 03:03:58;;;;;;;5.70;2.10;;;;;;;9.71;94.83;98489.31;5758092;23;20232;-59
2022/09/17 03:06:26;;;;;;;6.40;1.80;;;;;;;9.75;96.05;98490.66;4952654;28;20254;-59
2022/09/17 03:08:52;;;;;;;4.87;1.70;;;;;;;9.76;95.23;98483.66;4950154;28;20927;-59
2022/09/17 03:11:20;;;;;;;4.23;1.57;;;;;;;9.74;96.04;98489.03;4959356;28;20223;-58
2022/09/17 03:13:47;;;;;;;3.27;1.70;;;;;;;9.75;94.78;98482.00;4942595;28;20284;-59
2022/09/17 03:16:14;;;;;;;3.53;1.77;;;;;;;9.71;94.91;98484.09;4955660;28;20301;-59
2022/09/17 03:18:41;;;;;;;5.10;1.97;;;;;;;9.74;96.17;98482.97;4955956;28;20286;-56
2022/09/17 03:21:11;;;;;;;7.33;2.30;;;;;;;9.71;95.17;98485.88;4939229;28;20228;-58
2022/09/17 03:23:38;;;;;;;11.70;3.00;;;;;;;9.72;95.43;98496.16;4952529;28;20282;-60
2022/09/17 03:26:05;;;;;;;4.87;2.13;;;;;;;9.64;93.59;98503.91;4957005;28;20327;-60
2022/09/17 03:28:32;;;;;;;7.00;2.03;;;;;;;9.70;95.40;98502.47;4954065;28;20729;-60
2022/09/17 03:30:58;;;;;;;5.47;2.33;;;;;;;9.64;93.91;98516.94;4957703;28;20227;-59
2022/09/17 03:33:25;;;;;;;6.50;2.03;;;;;;;9.64;94.42;98505.69;4956347;28;20242;-60
2022/09/17 03:35:52;;;;;;;5.23;2.00;;;;;;;9.66;94.62;98509.78;4951797;28;21007;-59
2022/09/17 03:38:20;;;;;;;5.57;2.67;;;;;;;9.64;94.28;98513.50;4957971;28;20296;-60
2022/09/17 03:40:57;;;;;;;7.17;2.37;;;;;;;9.49;92.77;98514.03;4953971;28;20364;-59
2022/09/17 03:43:24;;;;;;;7.40;2.70;;;;;;;9.44;92.18;98517.06;4956201;28;20225;-59
2022/09/17 03:45:50;;;;;;;5.23;2.90;;;;;;;9.51;94.40;98521.69;4954203;28;20337;-59
2022/09/17 03:48:17;;;;;;;4.73;2.10;;;;;;;9.55;96.31;98521.22;4958465;28;20478;-59
2022/09/17 03:50:44;;;;;;;4.53;2.30;;;;;;;9.48;94.21;98517.59;4954228;28;20328;-59
2022/09/17 03:53:11;;;;;;;4.87;2.60;;;;;;;9.52;94.93;98515.50;4955991;28;20219;-60
2022/09/17 03:55:39;;;;;;;6.30;2.63;;;;;;;9.49;94.91;98528.81;4954894;28;20338;-59
2022/09/17 03:58:06;;;;;;;8.07;2.93;;;;;;;9.46;93.98;98532.56;4945605;28;20244;-59
2022/09/17 04:00:35;;;;;;;6.60;2.50;;;;;;;9.43;94.18;98527.63;4952806;28;20233;-59
2022/09/17 04:03:02;;;;;;;6.43;2.30;;;;;;;9.41;95.42;98530.38;4956788;28;20258;-59
2022/09/17 04:05:28;;;;;;;6.00;2.73;;;;;;;9.42;94.69;98531.19;4956115;28;20234;-59
2022/09/17 04:07:55;;;;;;;7.00;2.20;;;;;;;9.43;94.22;98533.66;4944519;28;20237;-59
2022/09/17 04:10:22;;;;;;;10.53;2.63;;;;;;;9.40;95.15;98531.34;4951458;28;20634;-59
2022/09/17 04:12:50;;;;;;;5.63;2.63;;;;;;;9.39;94.46;98534.09;4953316;28;21073;-59
2022/09/17 04:15:16;;;;;;;5.57;2.60;;;;;;;9.42;95.48;98520.78;4956750;28;20223;-59
2022/09/17 04:17:43;;;;;;;5.80;2.70;;;;;;;9.38;95.96;98520.25;4954531;28;20231;-60
2022/09/17 04:20:10;;;;;;;7.90;2.70;;;;;;;9.41;93.11;98526.97;4954643;28;20232;-59
2022/09/17 04:22:37;;;;;;;5.77;2.70;;;;;;;9.34;93.36;98531.09;4954538;28;20742;-59
2022/09/17 04:25:04;;;;;;;6.57;2.80;;;;;;;9.28;93.46;98529.88;4953828;28;20263;-60
2022/09/17 04:27:30;;;;;;;6.17;3.20;;;;;;;9.33;94.62;98540.69;4953094;28;20737;-59
2022/09/17 04:29:58;;;;;;;9.10;2.57;;;;;;;9.35;93.28;98538.75;4956903;28;20616;-58
2022/09/17 04:32:24;;;;;;;7.33;2.47;;;;;;;9.30;94.46;98540.97;4956922;28;20247;-58
2022/09/17 04:34:51;;;;;;;6.40;2.60;;;;;;;9.29;95.48;98539.34;4940276;28;20247;-58
2022/09/17 04:37:18;;;;;;;5.30;2.60;;;;;;;9.29;94.56;98542.78;4955111;28;20304;-59
2022/09/17 04:39:45;;;;;;;6.23;2.97;;;;;;;9.24;93.76;98546.75;4953752;28;20238;-59
2022/09/17 04:42:11;;;;;;;4.73;2.83;;;;;;;9.23;92.56;98561.59;4957349;28;20216;-59
2022/09/17 04:44:38;;;;;;;6.10;2.90;;;;;;;9.20;92.47;98559.28;4953875;28;20240;-59
2022/09/17 04:47:06;;;;;;;8.70;3.17;;;;;;;9.15;92.71;98571.91;4956865;28;20239;-59
2022/09/17 04:49:33;;;;;;;7.23;2.60;;;;;;;9.17;91.99;98562.16;4951622;28;20286;-57
2022/09/17 04:51:59;;;;;;;4.93;2.70;;;;;;;9.18;91.98;98557.75;4956767;28;20231;-59
2022/09/17 04:54:26;;;;;;;5.33;2.70;;;;;;;9.19;93.70;98557.63;4954674;28;20231;-58
2022/09/17 04:56:56;;;;;;;5.47;2.73;;;;;;;9.19;92.55;98560.22;4922504;28;20250;-59
2022/09/17 04:59:24;;;;;;;7.90;2.87;;;;;;;9.12;93.99;98559.16;4892418;28;20371;-59
2022/09/17 05:01:51;;;;;;;8.33;3.33;;;;;;;9.09;93.23;98562.06;4876822;28;20238;-59
2022/09/17 05:04:25;;;;;;;6.33;3.03;;;;;;;9.14;92.10;98562.44;4888353;28;20228;-59
2022/09/17 05:06:59;;;;;;;7.67;3.23;;;;;;;9.06;92.84;98570.94;4901054;28;20351;-59
2022/09/17 05:09:26;;;;;;;4.10;3.10;;;;;;;9.11;93.27;98578.34;4907924;28;20222;-58
2022/09/17 05:11:53;;;;;;;6.93;3.30;;;;;;;9.05;93.14;98573.72;4935204;28;20651;-59
2022/09/17 05:14:23;;;;;;;13.00;3.57;;;;;;;9.03;91.85;98576.44;4941825;28;20239;-59
2022/09/17 05:17:02;;;;;;;8.33;3.70;;;;;;;8.93;92.87;98580.88;4912219;28;20891;-61
2022/09/17 05:19:37;;;;;;;7.90;4.03;;;;;;;8.96;92.72;98576.22;4900804;28;20234;-59
2022/09/17 05:22:04;;;;;;;7.23;3.37;;;;;;;8.95;93.01;98571.16;4929138;28;20321;-59
2022/09/17 05:24:32;;;;;;;8.23;3.53;;;;;;;8.97;94.46;98574.44;4939225;28;20226;-58
2022/09/17 05:27:05;;;;;;;8.00;3.30;;;;;;;8.99;93.21;98585.53;4897267;28;20313;-58
2022/09/17 05:29:32;;;;;;;6.77;3.17;;;;;;;9.03;92.45;98578.25;4922737;28;20376;-59
2022/09/17 05:31:58;;;;;;;6.53;2.90;;;;;;;9.01;92.31;98580.97;4953855;28;20234;-59
2022/09/17 05:34:25;;;;;;;4.67;3.00;;;;;;;9.06;93.21;98573.56;4954404;28;20234;-59
2022/09/17 05:36:53;;;;;;;8.97;3.03;;;;;;;9.11;94.02;98578.34;4952124;28;20239;-59
2022/09/17 05:39:24;;;;;;;8.00;2.60;;;;;;;9.15;93.49;98583.13;4955023;28;20227;-59
2022/09/17 05:41:50;;;;;;;7.73;3.10;;;;;;;9.22;93.30;98593.81;4938169;28;20319;-59
2022/09/17 05:44:17;;;;;;;4.30;2.60;;;;;;;9.20;90.73;98585.31;4953115;28;20269;-59
2022/09/17 05:46:44;;;;;;;6.43;3.17;;;;;;;9.14;91.15;98597.09;4951849;28;20462;-61
2022/09/17 05:49:11;;;;;;;8.50;3.17;;;;;;;9.12;91.51;98603.44;4955446;28;20278;-59
2022/09/17 05:51:38;;;;;;;6.40;3.13;;;;;;;9.08;91.31;98602.06;4952159;28;20233;-59
2022/09/17 05:54:07;;;;;;;7.60;3.60;;;;;;;9.11;92.45;98602.59;4954979;28;20692;-61
2022/09/17 05:56:33;;;;;;;7.30;2.80;;;;;;;9.10;90.94;98600.16;4952041;28;20238;-59
2022/09/17 05:59:00;;;;;;;5.47;2.50;;;;;;;9.08;93.00;98600.28;4955322;28;20229;-60
2022/09/17 06:01:27;;;;;;;11.87;3.23;;;;;;;9.12;92.45;98606.03;4938279;28;20230;-59
2022/09/17 06:04:12;;;;;;;4.70;2.50;;;;;;;9.09;91.51;98608.94;4951564;28;20709;-59
2022/09/17 06:06:40;;;;;;;5.30;2.70;;;;;;;9.08;92.23;98608.09;4952470;28;20280;-59
2022/09/17 06:09:09;;;;;;;6.30;2.47;;;;;;;9.09;91.20;98601.13;4941562;28;20228;-59
2022/09/17 06:11:36;;;;;;;7.30;2.60;;;;;;;8.99;91.70;98607.16;4949113;28;20333;-58
2022/09/17 06:14:04;;;;;;;4.40;2.47;;;;;;;9.00;90.95;98608.81;4953193;28;20261;-58
2022/09/17 06:16:31;;;;;;;8.27;2.50;;;;;;;9.03;91.57;98607.69;4952087;28;20219;-59
2022/09/17 06:18:57;;;;;;;8.70;2.50;;;;;;;9.06;92.75;98614.41;4956338;28;20224;-58
2022/09/17 06:21:24;;;;;;;5.57;2.67;;;;;;;9.09;93.35;98616.72;4956208;28;20226;-60
2022/09/17 06:23:51;;;;;;;4.57;2.10;;;;;;;9.10;91.59;98616.59;4953341;28;20248;-59
2022/09/17 06:26:19;;;;;;;4.13;2.53;;;;;;;9.13;91.21;98613.69;4954625;28;20584;-59
2022/09/17 06:28:46;;;;;;;10.00;2.50;;;;;;;9.16;91.42;98613.41;4950453;28;20230;-58
2022/09/17 06:31:13;;;;;;;4.10;1.80;;;;;;;9.21;91.43;98613.00;4954406;28;20228;-59
2022/09/17 06:33:40;;;;;;;10.53;2.33;;;;;;;9.19;90.85;98617.53;4953340;28;20304;-60
2022/09/17 06:36:09;;;;;;;4.97;2.13;;;;;;;9.31;89.40;98625.97;4956452;28;20231;-60
2022/09/17 06:38:36;;;;;;;7.10;3.00;;;;;;;9.18;91.65;98610.69;4952754;28;20319;-59
2022/09/17 06:41:04;;;;;;;9.80;3.00;;;;;;;9.13;90.77;98624.09;4954660;28;20230;-59
2022/09/17 06:43:32;;;;;;;4.00;2.73;;;;;;;9.09;90.65;98621.94;4953686;28;20872;-58
2022/09/17 06:46:00;;;;;;;6.23;3.20;;;;;;;8.96;90.80;98619.66;4959668;28;20242;-59
2022/09/17 06:48:28;;;;;;;5.67;3.27;;;;;;;9.09;91.12;98627.97;4959446;28;20237;-59
2022/09/17 06:50:56;;;;;;;7.33;2.93;;;;;;;9.15;89.42;98634.41;4956604;28;20265;-59
2022/09/17 06:53:24;;;;;;;4.43;3.00;;;;;;;9.09;90.84;98633.16;4957337;28;20227;-58
2022/09/17 06:55:51;;;;;;;6.97;3.50;;;;;;;9.07;90.91;98637.69;4954470;28;20243;-59
2022/09/17 06:58:18;;;;;;;6.70;3.60;;;;;;;9.05;89.60;98625.78;4959231;28;20228;-59
2022/09/17 07:00:46;;;;;;;7.43;3.50;;;;;;;9.15;90.47;98627.41;4955613;28;20234;-59
2022/09/17 07:03:13;;;;;;;6.43;3.73;;;;;;;9.15;90.82;98630.00;4956854;28;21998;-59
2022/09/17 07:05:42;;;;;;;8.33;3.33;;;;;;;9.17;89.42;98635.09;4954556;28;20218;-58
2022/09/17 07:08:09;;;;;;;7.67;3.10;;;;;;;9.16;89.89;98647.25;4955144;28;20547;-59
2022/09/17 07:10:36;;;;;;;10.27;3.60;;;;;;;9.19;89.89;98640.97;4953797;28;20777;-59
2022/09/17 07:13:03;;;;;;;5.20;3.13;;;;;;;9.17;89.66;98655.91;4954798;28;20313;-59
2022/09/17 07:15:30;;;;;;;7.00;3.40;;;;;;;9.07;91.13;98636.88;4954273;28;20228;-60
2022/09/17 07:17:58;;;;;;;7.63;3.47;;;;;;;9.13;91.99;98638.94;4960298;28;20251;-59
2022/09/17 07:20:25;;;;;;;5.57;3.20;;;;;;;9.15;90.69;98647.41;4958211;28;20241;-59
2022/09/17 07:22:56;;;;;;;6.47;3.20;;;;;;;9.19;90.59;98648.78;4954501;28;20757;-59
2022/09/17 07:25:23;;;;;;;4.03;2.83;;;;;;;9.25;88.60;98658.63;4957448;28;20309;-60
2022/09/17 07:27:50;;;;;;;5.90;3.50;;;;;;;9.18;91.34;98657.56;4955520;28;20253;-59
2022/09/17 07:30:16;;;;;;;11.17;3.30;;;;;;;9.18;93.23;98660.16;4957469;28;20224;-59
2022/09/17 07:32:43;;;;;;;10.53;3.97;;;;;;;9.18;93.15;98667.13;4954156;28;20231;-59
2022/09/17 07:35:11;;;;;;;5.13;3.03;;;;;;;9.21;93.94;98666.84;4956243;28;20285;-59
2022/09/17 07:37:38;;;;;;;7.83;3.40;;;;;;;9.23;91.70;98670.13;4954663;28;20262;-59
2022/09/17 07:40:07;;;;;;;9.53;3.73;;;;;;;9.23;93.59;98670.97;4957106;28;20727;-59
2022/09/17 07:42:34;;;;;;;5.63;3.30;;;;;;;9.33;95.23;98670.94;4955194;28;20229;-59
2022/09/17 07:45:00;;;;;;;8.40;3.37;;;;;;;9.40;95.28;98664.19;4958731;28;20239;-59
2022/09/17 07:47:27;;;;;;;7.13;2.90;;;;;;;9.47;94.25;98674.06;4959249;28;20221;-59
2022/09/17 07:49:54;;;;;;;6.77;4.50;;;;;;;9.53;94.44;98674.31;4955943;28;20290;-59
2022/09/17 07:52:23;;;;;;;12.37;3.90;;;;;;;9.64;96.40;98672.47;4938846;28;20254;-59
2022/09/17 07:54:56;;;;;;;7.70;3.40;;;;;;;9.79;95.15;98678.84;4950957;28;20242;-59
2022/09/17 07:57:59;;;;;;;7.20;3.70;;;;;;;9.85;95.64;98685.28;4954500;28;20226;-60
2022/09/17 08:00:29;;;;;;;5.23;3.23;;;;;;;9.75;94.70;98688.75;4950777;28;20218;-60
2022/09/17 08:06:12;;;;;;;6.80;2.93;;;;;;;9.85;92.50;98683.50;4947483;28;20284;-60
2022/09/17 08:09:14;;;;;;;8.40;3.33;;;;;;;9.91;93.09;98687.31;4952151;28;20272;-59
2022/09/17 08:12:21;;;;;;;9.53;3.60;;;;;;;9.75;92.50;98691.38;4951907;28;20235;-59
2022/09/17 08:14:54;;;;;;;6.57;3.17;;;;;;;9.85;90.70;98686.09;4952456;28;20385;-59
2022/09/17 08:17:36;;;;;;;5.80;3.50;;;;;;;9.71;92.88;98687.41;4958205;28;20743;-60
2022/09/17 08:20:10;;;;;;;7.67;3.63;;;;;;;9.74;92.85;98694.09;4953975;28;20302;-60
2022/09/17 08:23:09;;;;;;;;;;;;;;;;;;;;;
2022/09/17 08:26:13;;;;;;;;;;;;;;;;;;;;;
2022/09/17 08:29:07;;;;;;;6.80;3.20;;;;;;;9.97;94.40;98697.19;4949520;28;20214;-59
2022/09/17 08:34:18;;;;;;;8.33;3.10;;;;;;;10.18;93.39;98699.53;4950955;28;20236;-59
2022/09/17 08:37:01;;;;;;;13.27;3.20;;;;;;;10.15;91.52;98691.16;4952370;28;20910;-60
2022/09/17 08:39:36;;;;;;;10.90;3.50;;;;;;;10.28;91.70;98696.84;4955465;28;20239;-59
2022/09/17 08:42:20;;;;;;;11.13;3.17;;;;;;;10.43;90.31;98704.19;4952209;28;20590;-59
2022/09/17 08:45:05;;;;;;;6.33;2.87;;;;;;;10.25;88.92;98706.75;4954890;28;20595;-59
2022/09/17 08:47:45;;;;;;;7.23;3.10;;;;;;;10.32;90.31;98710.44;4939376;28;20234;-59
2022/09/17 08:50:16;;;;;;;7.60;3.00;;;;;;;10.21;91.78;98716.66;4955616;28;20277;-59
2022/09/17 08:53:00;;;;;;;8.80;3.00;;;;;;;10.14;89.23;98707.78;4933774;28;20659;-59
2022/09/17 08:55:55;;;;;;;8.60;3.33;;;;;;;10.00;93.53;98709.94;4953942;28;20286;-60
2022/09/17 08:58:39;;;;;;;8.60;3.27;;;;;;;10.14;92.30;98716.44;4954385;28;20536;-59
2022/09/17 09:01:42;;;;;;;6.83;2.63;;;;;;;10.30;89.95;98715.78;4952902;28;20300;-58
2022/09/17 09:04:55;;;;;;;8.17;3.10;;;;;;;10.30;87.32;98714.97;4952507;28;20221;-59
2022/09/17 09:07:29;;;;;;;5.23;2.87;;;;;;;10.37;91.58;98716.03;4952520;28;20243;-60
2022/09/17 09:10:05;;;;;;;10.23;3.20;;;;;;;10.58;89.90;98723.59;4953554;28;20222;-59
2022/09/17 09:12:47;;;;;;;4.27;2.40;;;;;;;10.78;89.37;98719.03;4952046;28;20227;-60
2022/09/17 09:15:36;;;;;;;6.53;2.57;;;;;;;10.92;87.79;98709.03;4952558;28;20227;-59
2022/09/17 09:18:18;;;;;;;6.00;2.30;;;;;;;11.01;87.17;98713.34;4953359;28;20309;-59
2022/09/17 09:20:54;;;;;;;6.60;2.63;;;;;;;11.06;88.94;98710.31;4952639;28;20230;-59
2022/09/17 09:23:35;;;;;;;11.63;2.97;;;;;;;11.05;87.82;98714.69;4954811;28;20691;-57
2022/09/17 09:26:18;;;;;;;8.63;3.00;;;;;;;11.09;85.89;98715.22;4952489;28;20691;-57
2022/09/17 09:29:01;;;;;;;6.37;2.57;;;;;;;11.02;86.48;98715.00;4953510;28;20240;-57
2022/09/17 09:31:50;;;;;;;8.33;2.90;;;;;;;11.21;87.45;98713.97;4951765;28;20306;-57
2022/09/17 09:34:22;;;;;;;8.50;2.90;;;;;;;11.39;85.67;98714.94;4953186;28;20233;-59
2022/09/17 09:36:56;;;;;;;7.63;2.80;;;;;;;11.40;86.32;98720.00;4951172;28;20235;-59
2022/09/17 09:39:28;;;;;;;8.80;2.90;;;;;;;11.54;86.58;98713.38;4955206;28;20255;-58
2022/09/17 09:42:02;;;;;;;10.03;4.10;;;;;;;11.73;85.01;98716.72;4954296;28;20249;-57
2022/09/17 09:44:32;;;;;;;5.57;2.50;;;;;;;12.06;80.06;98719.53;4950619;28;20241;-57
2022/09/17 09:47:40;;;;;;;4.43;2.23;;;;;;;12.19;80.40;98714.66;4956721;28;20227;-59
2022/09/17 09:50:38;;;;;;;7.50;2.83;;;;;;;12.38;79.28;98715.38;4952312;28;20225;-59
2022/09/17 09:53:19;;;;;;;9.23;3.27;;;;;;;12.51;80.36;98710.50;4950805;28;20235;-56
2022/09/17 09:56:07;;;;;;;5.77;2.20;;;;;;;12.65;76.00;98721.31;4952221;28;20251;-59
2022/09/17 09:58:36;;;;;;;11.67;3.30;;;;;;;12.67;77.54;98722.78;4951862;28;20230;-59
2022/09/17 10:01:02;;;;;;;7.67;2.50;;;;;;;12.79;75.30;98714.59;4955116;28;20759;-59
2022/09/17 10:03:32;;;;;;;6.60;3.00;;;;;;;12.42;76.28;98719.31;4953565;28;20275;-59
2022/09/17 10:06:01;;;;;;;5.43;2.57;;;;;;;12.77;75.04;98719.19;4955297;28;20280;-59
2022/09/17 10:08:29;;;;;;;4.27;2.20;;;;;;;12.92;76.21;98719.34;4937830;28;20691;-59
2022/09/17 10:10:59;;;;;;;9.70;2.60;;;;;;;13.07;76.90;98720.34;4952354;28;20239;-59
2022/09/17 10:13:27;;;;;;;6.63;2.57;;;;;;;12.87;76.30;98714.63;4936753;28;20243;-59
2022/09/17 10:15:54;;;;;;;6.30;2.77;;;;;;;13.06;75.89;98710.84;4949732;28;20617;-58
2022/09/17 10:18:23;;;;;;;6.80;2.77;;;;;;;12.90;75.00;98713.47;4956413;28;20348;-59
2022/09/17 10:20:56;;;;;;;8.90;2.57;;;;;;;12.34;76.57;98714.84;4955916;28;20244;-59
2022/09/17 10:23:25;;;;;;;4.67;2.57;;;;;;;12.29;76.63;98701.44;4958610;28;20233;-59
2022/09/17 10:25:54;;;;;;;5.67;2.57;;;;;;;12.50;77.88;98702.78;4955468;28;20232;-59
2022/09/17 10:28:47;;;;;;;5.77;2.40;;;;;;;12.31;76.65;98703.91;4957037;28;20298;-58
2022/09/17 10:31:47;;;;;;;9.07;2.77;;;;;;;12.86;77.41;98707.75;4952242;28;20317;-58
2022/09/17 10:34:20;;;;;;;8.10;2.23;;;;;;;13.57;72.79;98712.44;4958749;28;20366;-59
2022/09/17 10:36:49;;;;;;;4.63;2.50;;;;;;;13.63;73.11;98714.38;4953684;28;20238;-57
2022/09/17 10:39:35;;;;;;;8.77;2.20;;;;;;;14.42;69.58;98725.84;4955552;28;20299;-59
2022/09/17 10:42:03;;;;;;;8.13;2.37;;;;;;;15.01;66.35;98719.22;4952912;28;20228;-58
2022/09/17 10:44:31;;;;;;;6.63;2.73;;;;;;;15.01;67.08;98720.03;4955115;28;20237;-59
2022/09/17 10:47:13;;;;;;;6.07;2.93;;;;;;;14.84;69.07;98721.16;4956057;28;20238;-59
2022/09/17 10:49:42;;;;;;;8.23;2.27;;;;;;;14.96;66.25;98724.19;4953697;28;20230;-59
2022/09/17 10:52:21;;;;;;;6.03;2.50;;;;;;;14.39;67.50;98708.63;4958529;28;20623;-59
2022/09/17 10:55:12;;;;;;;4.43;2.50;;;;;;;14.45;67.68;98707.94;4956229;28;20661;-59
2022/09/17 10:57:53;;;;;;;6.43;2.60;;;;;;;14.60;66.88;98701.94;4955273;28;20241;-59
2022/09/17 11:00:22;;;;;;;7.33;2.77;;;;;;;14.22;68.51;98702.66;4958479;28;20236;-57
2022/09/17 11:03:23;;;;;;;15.03;3.30;;;;;;;14.60;67.43;98699.28;4955875;28;20532;-57
2022/09/17 11:06:15;;;;;;;5.50;2.30;;;;;;;14.74;66.65;98690.69;4955783;28;20238;-57
2022/09/17 11:08:53;;;;;;;4.67;2.67;;;;;;;14.63;69.51;98693.69;4956103;28;20228;-56
2022/09/17 11:11:36;;;;;;;8.63;2.50;;;;;;;15.04;66.65;98687.31;4959679;28;20225;-56
2022/09/17 11:14:15;;;;;;;3.67;1.70;;;;;;;15.26;65.75;98693.53;4956628;28;20229;-57
2022/09/17 11:16:54;;;;;;;5.07;2.30;;;;;;;15.48;63.78;98683.09;4952639;28;20703;-56
2022/09/17 11:19:49;;;;;;;4.47;1.90;;;;;;;15.53;64.43;98679.94;4955897;28;20618;-57
2022/09/17 11:22:23;;;;;;;5.73;1.80;;;;;;;15.57;65.44;98678.59;4957591;28;20637;-57
2022/09/17 11:25:25;;;;;;;5.43;1.77;;;;;;;14.79;66.46;98682.28;4953067;28;20441;-57
2022/09/17 11:28:06;;;;;;;8.00;2.53;;;;;;;14.60;66.42;98673.88;4940949;28;20712;-56
2022/09/17 11:30:43;;;;;;;6.07;1.73;;;;;;;14.16;72.57;98675.28;4955429;28;20274;-57
2022/09/17 11:33:36;;;;;;;6.40;1.90;;;;;;;14.50;70.80;98670.66;4954931;28;20226;-57
2022/09/17 11:36:10;;;;;;;4.87;1.63;;;;;;;14.96;70.09;98666.34;4953870;28;20230;-57
2022/09/17 11:38:42;;;;;;;6.57;2.07;;;;;;;15.23;67.67;98657.09;4953951;28;20259;-56
2022/09/17 11:41:15;;;;;;;7.90;1.80;;;;;;;14.86;67.53;98661.38;4956466;28;20252;-57
2022/09/17 11:43:47;;;;;;;8.07;1.80;;;;;;;14.66;70.37;98653.13;4951915;28;20225;-56
2022/09/17 11:46:18;;;;;;;7.47;1.43;;;;;;;14.22;70.66;98659.84;4957144;28;20232;-56
2022/09/17 11:48:50;;;;;;;9.40;1.93;;;;;;;13.82;73.37;98657.25;4955843;28;20240;-57
2022/09/17 11:51:24;;;;;;;7.37;2.37;;;;;;;13.37;78.72;98657.72;4956142;28;20229;-56
2022/09/17 11:53:55;;;;;;;4.53;1.63;;;;;;;13.24;78.97;98658.25;4952886;28;20268;-57
2022/09/17 11:56:29;;;;;;;7.03;2.10;;;;;;;13.89;74.11;98658.19;4957051;28;20236;-57
2022/09/17 11:59:03;;;;;;;2.33;1.50;;;;;;;14.40;75.90;98651.69;4953847;28;20268;-57
2022/09/17 12:01:36;;;;;;;6.93;2.00;;;;;;;14.86;77.31;98659.53;4955931;28;20226;-56
2022/09/17 12:04:16;;;;;;;6.70;2.07;;;;;;;14.87;72.17;98648.03;4952825;28;20626;-61
2022/09/17 12:06:50;;;;;;;3.17;1.40;;;;;;;14.95;70.81;98646.31;4953566;28;20233;-62
2022/09/17 12:09:21;;;;;;;5.57;2.00;;;;;;;14.91;74.65;98646.69;4956411;28;20284;-58
2022/09/17 12:11:55;;;;;;;9.70;1.70;;;;;;;14.53;72.24;98633.53;4955234;28;20278;-64
2022/09/17 12:14:24;;;;;;;4.87;1.50;;;;;;;14.08;70.43;98632.50;4956742;28;20317;-63
2022/09/17 12:16:57;;;;;;;6.93;1.30;;;;;;;13.67;74.36;98639.63;4949499;28;20301;-60